Time;durP1;ratioP1;P1;durP2;ratioP2;P2;SDS_P1;SDS_P2;PMS_P1;PMS_P2;Temp;Humidity;BMP_temperature;BMP_pressure;BME280_temperature;BME280_humidity;BME280_pressure;Samples;Min_cycle;Max_cycle;Signal;HPM_P1;HPM_P2
2023/04/10 08:03:08;;;;;;;;;;;;;;;10.35;57.25;98786.47;5426389;23;20455;-61
2023/04/10 08:05:33;;;;;;;;;;;;;;;10.47;56.87;98780.53;4976511;28;20009;-61
2023/04/10 08:07:58;;;;;;;;;;;;;;;10.58;56.50;98779.88;4978462;28;19914;-61
2023/04/10 08:10:24;;;;;;;;;;;;;;;10.73;56.51;98778.13;4976416;28;19933;-62
2023/04/10 08:12:49;;;;;;;;;;;;;;;10.84;56.16;98780.94;4976421;28;19914;-62
2023/04/10 08:15:15;;;;;;;;;;;;;;;10.94;55.81;98779.44;4976414;28;19922;-62
2023/04/10 08:17:40;;;;;;;;;;;;;;;11.05;55.92;98774.41;4966240;28;20013;-62
2023/04/10 08:20:06;;;;;;;;;;;;;;;11.15;55.30;98778.13;4965256;28;20383;-62
2023/04/10 08:22:31;;;;;;;;;;;;;;;11.24;55.11;98781.13;4968496;28;20268;-61
2023/04/10 08:24:56;;;;;;;;;;;;;;;11.35;54.50;98783.91;4975590;28;19926;-60
2023/04/10 08:27:21;;;;;;;;;;;;;;;11.46;54.45;98788.50;4965768;28;19918;-60
2023/04/10 08:29:46;;;;;;;;;;;;;;;11.54;53.90;98788.88;4961341;28;20386;-61
2023/04/10 08:32:12;;;;;;;;;;;;;;;11.62;54.07;98776.91;4961685;28;20296;-62
2023/04/10 08:34:37;;;;;;;;;;;;;;;11.70;54.31;98776.44;4964491;28;19918;-62
2023/04/10 08:37:05;;;;;;;;;;;;;;;11.78;52.94;98773.31;4964672;28;19918;-61
2023/04/10 08:39:33;;;;;;;;;;;;;;;11.88;52.75;98772.66;4969612;28;19927;-61
2023/04/10 08:41:59;;;;;;;;;;;;;;;11.99;52.54;98769.31;4972683;28;20380;-61
2023/04/10 08:44:24;;;;;;;;;;;;;;;12.17;52.94;98776.94;4966181;28;19920;-61
2023/04/10 08:46:50;;;;;;;;;;;;;;;12.32;52.13;98770.69;4981245;28;19922;-61
2023/04/10 08:49:27;;;;;;;;;;;;;;;12.45;51.70;98768.91;4970520;28;20017;-64
2023/04/10 08:51:55;;;;;;;;;;;;;;;12.59;51.11;98760.94;4970422;28;20060;-64
2023/04/10 08:54:24;;;;;;;;;;;;;;;12.75;50.78;98758.09;4965904;28;20376;-62
2023/04/10 08:56:50;;;;;;;;;;;;;;;12.92;50.84;98754.28;4958451;28;19926;-62
2023/04/10 08:59:15;;;;;;;;;;;;;;;13.11;51.43;98758.25;4971369;28;19926;-62
2023/04/10 09:01:40;;;;;;;;;;;;;;;13.29;50.50;98762.28;4967498;28;20060;-62
2023/04/10 09:04:06;;;;;;;;;;;;;;;13.45;50.16;98757.59;4967474;28;20001;-62
2023/04/10 09:06:31;;;;;;;;;;;;;;;13.62;49.51;98758.19;4966091;28;19965;-62
2023/04/10 09:08:58;;;;;;;;;;;;;;;13.77;48.69;98746.53;4972460;28;19958;-63
2023/04/10 09:11:24;;;;;;;;;;;;;;;13.97;48.21;98743.28;4974260;28;19922;-62
2023/04/10 09:13:49;;;;;;;;;;;;;;;14.15;47.92;98745.50;4968903;28;19918;-62
2023/04/10 09:16:15;;;;;;;;;;;;;;;14.33;48.86;98746.75;4964155;28;21656;-62
2023/04/10 09:18:44;;;;;;;;;;;;;;;14.55;49.77;98742.50;4973805;28;19925;-63
2023/04/10 09:21:10;;;;;;;;;;;;;;;14.77;48.59;98742.56;4972847;28;19918;-62
2023/04/10 09:23:35;;;;;;;;;;;;;;;15.00;47.49;98730.19;4972429;28;19971;-63
2023/04/10 09:26:00;;;;;;;;;;;;;;;15.24;47.44;98732.69;4969808;28;19919;-62
2023/04/10 09:28:25;;;;;;;;;;;;;;;15.44;47.97;98724.00;4974582;28;19918;-63
2023/04/10 09:30:51;;;;;;;;;;;;;;;15.66;44.61;98725.81;4974846;28;19925;-63
2023/04/10 09:33:22;;;;;;;;;;;;;;;15.89;45.27;98723.91;4967230;28;19918;-63
2023/04/10 09:35:48;;;;;;;;;;;;;;;16.12;45.69;98722.03;4972320;28;19918;-62
2023/04/10 09:38:16;;;;;;;;;;;;;;;16.31;43.10;98709.88;4974319;28;20335;-63
2023/04/10 09:40:41;;;;;;;;;;;;;;;16.37;39.70;98710.22;4974697;28;20016;-63
2023/04/10 09:43:17;;;;;;;;;;;;;;;16.39;39.92;98715.41;4971845;28;20049;-63
2023/04/10 09:45:49;;;;;;;;;;;;;;;16.52;42.83;98712.56;4974670;28;19918;-65
2023/04/10 09:48:15;;;;;;;;;;;;;;;16.73;42.29;98705.41;4967979;28;19951;-62
2023/04/10 09:50:40;;;;;;;;;;;;;;;16.90;40.28;98709.31;4973559;28;19922;-64
2023/04/10 09:53:15;;;;;;;;;;;;;;;17.19;42.10;98693.50;4970681;28;19918;-64
2023/04/10 09:55:41;;;;;;;;;;;;;;;17.50;40.16;98690.78;4969679;28;20049;-61
2023/04/10 09:58:06;;;;;;;;;;;;;;;17.62;37.51;98681.72;4971436;28;19918;-62
2023/04/10 10:00:38;;;;;;;;;;;;;;;17.71;36.81;98670.28;4971777;28;20302;-63
2023/04/10 10:03:03;;;;;;;;;;;;;;;17.93;39.87;98671.84;4972498;28;19918;-62
2023/04/10 10:05:29;;;;;;;;;;;;;;;18.21;39.15;98661.34;4972063;28;19918;-61
2023/04/10 10:07:55;;;;;;;;;;;;;;;18.47;37.24;98658.91;4974420;28;20327;-62
2023/04/10 10:10:20;;;;;;;;;;;;;;;18.78;38.11;98651.56;4964153;28;20395;-62
2023/04/10 10:12:50;;;;;;;;;;;;;;;19.02;36.03;98651.03;4971376;28;19918;-62
2023/04/10 10:15:27;;;;;;;;;;;;;;;19.23;36.09;98652.59;4971739;28;20347;-62
2023/04/10 10:18:01;;;;;;;;;;;;;;;19.47;34.87;98644.88;4969746;28;19918;-62
2023/04/10 10:20:26;;;;;;;;;;;;;;;19.74;36.89;98640.50;4971801;28;19925;-62
2023/04/10 10:22:51;;;;;;;;;;;;;;;20.04;36.33;98642.75;4968589;28;19918;-62
2023/04/10 10:25:18;;;;;;;;;;;;;;;20.31;34.53;98638.31;4973130;28;19921;-61
2023/04/10 10:27:43;;;;;;;;;;;;;;;20.58;34.28;98635.50;4969904;28;19937;-61
2023/04/10 10:30:08;;;;;;;;;;;;;;;20.90;33.47;98627.81;4972224;28;19914;-61
2023/04/10 10:32:34;;;;;;;;;;;;;;;21.27;34.49;98619.44;4968134;28;19945;-62
2023/04/10 10:35:00;;;;;;;;;;;;;;;21.58;32.86;98617.03;4972884;28;20009;-62
2023/04/10 10:37:25;;;;;;;;;;;;;;;21.92;32.19;98614.22;4971411;28;20375;-62
2023/04/10 10:39:50;;;;;;;;;;;;;;;22.18;31.37;98618.53;4971707;28;19925;-62
2023/04/10 10:42:39;;;;;;;;;;;;;;;22.36;29.48;98608.47;4972288;28;20307;-62
2023/04/10 10:45:04;;;;;;;;;;;;;;;22.65;29.32;98609.75;4969250;28;20380;-62
2023/04/10 10:47:30;;;;;;;;;;;;;;;22.79;29.45;98601.00;4968534;28;19946;-62
2023/04/10 10:49:55;;;;;;;;;;;;;;;22.81;28.40;98600.81;4970940;28;19933;-62
2023/04/10 10:52:39;;;;;;;;;;;;;;;22.75;27.81;98607.72;4964171;28;19926;-62
2023/04/10 10:55:23;;;;;;;;;;;;;;;22.41;27.46;98598.13;4971702;28;19918;-62
2023/04/10 10:57:57;;;;;;;;;;;;;;;22.59;28.35;98589.06;4970528;28;19965;-62
2023/04/10 11:00:23;;;;;;;;;;;;;;;23.02;29.76;98589.56;4967354;28;19923;-62
2023/04/10 11:03:07;;;;;;;;;;;;;;;23.39;29.05;98581.66;4966323;28;20334;-62
2023/04/10 11:05:51;;;;;;;;;;;;;;;23.79;27.77;98576.19;4971965;28;20009;-62
2023/04/10 11:08:16;;;;;;;;;;;;;;;24.05;27.20;98576.63;4969267;28;20477;-62
2023/04/10 11:10:57;;;;;;;;;;;;;;;24.46;27.54;98572.72;4971469;28;20042;-62
2023/04/10 11:13:23;;;;;;;;;;;;;;;24.87;28.43;98560.47;4970524;28;19924;-62
2023/04/10 11:15:50;;;;;;;;;;;;;;;25.28;26.17;98562.59;4970877;28;20287;-62
2023/04/10 11:18:15;;;;;;;;;;;;;;;25.59;26.59;98558.78;4970151;28;20400;-62
2023/04/10 11:20:59;;;;;;;;;;;;;;;25.95;24.00;98547.16;4971075;28;19957;-63
2023/04/10 11:23:24;;;;;;;;;;;;;;;26.17;24.08;98551.41;4967234;28;19918;-62
2023/04/10 11:25:50;;;;;;;;;;;;;;;26.52;24.26;98554.13;4973938;28;20001;-62
2023/04/10 11:28:30;;;;;;;;;;;;;;;26.75;22.92;98548.47;4969469;28;20005;-62
2023/04/10 11:30:56;;;;;;;;;;;;;;;26.95;23.40;98546.69;4972100;28;20016;-62
2023/04/10 11:33:21;;;;;;;;;;;;;;;27.02;21.78;98544.00;4953559;28;20343;-62
2023/04/10 11:35:46;;;;;;;;;;;;;;;27.32;21.84;98543.69;4971467;28;19921;-63
2023/04/10 11:38:12;;;;;;;;;;;;;;;27.67;22.37;98536.28;4970225;28;19914;-62
2023/04/10 11:40:53;;;;;;;;;;;;;;;27.95;21.50;98527.19;4972250;28;20400;-62
2023/04/10 11:43:18;;;;;;;;;;;;;;;28.24;21.59;98520.50;4970977;28;20392;-62
2023/04/10 11:45:44;;;;;;;;;;;;;;;28.31;21.40;98526.69;4970740;28;19918;-62
2023/04/10 11:48:09;;;;;;;;;;;;;;;28.29;20.63;98518.00;4971200;28;19918;-62
2023/04/10 11:50:35;;;;;;;;;;;;;;;28.21;20.75;98515.50;4972363;28;20375;-62
2023/04/10 11:53:00;;;;;;;;;;;;;;;28.43;21.18;98503.47;4971657;28;20190;-62
2023/04/10 11:55:46;;;;;;;;;;;;;;;28.63;20.54;98504.22;4972001;28;20020;-62
2023/04/10 11:58:40;;;;;;;;;;;;;;;28.98;20.16;98503.00;4971754;28;20008;-62
2023/04/10 12:01:05;;;;;;;;;;;;;;;28.72;20.09;98501.25;4911030;29;19919;-62
2023/04/10 12:03:37;;;;;;;;;;;;;;;29.01;20.11;98506.16;4911176;29;19982;-62
2023/04/10 12:06:06;;;;;;;;;;;;;;;29.02;19.14;98497.00;4911264;29;19926;-62
2023/04/10 12:08:32;;;;;;;;;;;;;;;28.72;19.35;98494.00;4910999;29;19959;-62
2023/04/10 12:10:57;;;;;;;;;;;;;;;28.34;19.59;98493.91;4912116;29;19923;-62
2023/04/10 12:13:23;;;;;;;;;;;;;;;28.63;19.93;98492.56;4895566;29;19942;-62
2023/04/10 12:15:48;;;;;;;;;;;;;;;28.78;19.89;98489.63;4911093;29;19958;-62
2023/04/10 12:18:13;;;;;;;;;;;;;;;29.02;19.26;98490.75;4911276;29;19922;-62
2023/04/10 12:20:39;;;;;;;;;;;;;;;29.29;19.32;98481.44;4898867;29;19919;-62
2023/04/10 12:23:04;;;;;;;;;;;;;;;29.04;18.87;98480.56;4914691;29;19945;-62
2023/04/10 12:25:29;;;;;;;;;;;;;;;28.67;19.09;98482.22;4915093;29;19975;-61
2023/04/10 12:27:55;;;;;;;;;;;;;;;27.71;21.71;98489.03;4914286;29;19923;-62
2023/04/10 12:30:20;;;;;;;;;;;;;;;28.04;21.37;98474.69;4914909;29;19923;-61
2023/04/10 12:32:52;;;;;;;;;;;;;;;28.66;19.95;98481.34;4911007;29;19923;-60
2023/04/10 12:35:17;;;;;;;;;;;;;;;28.95;20.50;98474.56;4914138;29;19923;-60
2023/04/10 12:37:49;;;;;;;;;;;;;;;28.74;21.08;98467.63;4949877;28;20358;-61
2023/04/10 12:40:15;;;;;;;;;;;;;;;28.47;20.91;98464.22;4965133;28;20001;-60
2023/04/10 12:42:43;;;;;;;;;;;;;;;28.39;20.81;98453.69;4973426;28;20001;-61
2023/04/10 12:45:09;;;;;;;;;;;;;;;27.68;22.67;98457.94;4970988;28;19918;-61
2023/04/10 12:47:47;;;;;;;;;;;;;;;26.92;23.61;98462.81;4970482;28;19918;-60
2023/04/10 12:50:13;;;;;;;;;;;;;;;27.34;22.03;98452.75;4974910;28;19922;-61
2023/04/10 12:52:39;;;;;;;;;;;;;;;27.81;19.64;98443.66;4973880;28;19918;-61
2023/04/10 12:55:08;;;;;;;;;;;;;;;28.39;19.92;98438.31;4973637;28;20443;-61
2023/04/10 12:57:33;;;;;;;;;;;;;;;28.78;19.48;98441.03;4973547;28;19920;-61
2023/04/10 12:59:59;;;;;;;;;;;;;;;29.26;19.73;98432.44;4974569;28;19918;-61
2023/04/10 13:02:26;;;;;;;;;;;;;;;29.97;19.78;98429.31;4974881;28;20002;-61
2023/04/10 13:04:51;;;;;;;;;;;;;;;30.57;18.45;98425.09;4974025;28;19918;-61
2023/04/10 13:07:16;;;;;;;;;;;;;;;30.99;18.30;98431.38;4973031;28;19925;-62
2023/04/10 13:09:42;;;;;;;;;;;;;;;31.38;17.26;98421.84;4975052;28;19914;-62
2023/04/10 13:12:07;;;;;;;;;;;;;;;31.72;17.48;98416.63;4975013;28;19925;-61
2023/04/10 13:14:32;;;;;;;;;;;;;;;32.04;16.56;98421.72;4975213;28;20467;-62
2023/04/10 13:16:57;;;;;;;;;;;;;;;32.44;16.36;98410.09;4973081;28;20425;-61
2023/04/10 13:19:23;;;;;;;;;;;;;;;32.76;16.12;98411.25;4974908;28;19921;-62
2023/04/10 13:21:50;;;;;;;;;;;;;;;33.04;15.78;98407.69;4974696;28;19918;-62
2023/04/10 13:24:15;;;;;;;;;;;;;;;33.29;15.50;98403.75;4974984;28;20563;-62
2023/04/10 13:26:40;;;;;;;;;;;;;;;33.76;15.65;98396.06;4972944;28;19922;-61
2023/04/10 13:29:05;;;;;;;;;;;;;;;34.08;15.40;98384.56;4974592;28;19921;-62
2023/04/10 13:31:31;;;;;;;;;;;;;;;34.06;14.99;98378.53;4971535;28;19922;-60
2023/04/10 13:33:56;;;;;;;;;;;;;;;34.38;14.63;98380.53;4974759;28;19914;-61
2023/04/10 13:36:21;;;;;;;;;;;;;;;34.68;14.75;98375.44;4973735;28;19918;-60
2023/04/10 13:38:46;;;;;;;;;;;;;;;34.02;14.31;98364.59;4973125;28;20367;-61
2023/04/10 13:41:12;;;;;;;;;;;;;;;34.08;14.62;98360.06;4967359;28;20001;-60
2023/04/10 13:43:37;;;;;;;;;;;;;;;34.55;14.58;98370.44;4974470;28;20005;-61
2023/04/10 13:46:02;;;;;;;;;;;;;;;34.94;14.27;98367.50;4972421;28;19961;-61
2023/04/10 13:48:27;;;;;;;;;;;;;;;34.90;13.61;98366.41;4972532;28;19965;-61
2023/04/10 13:50:52;;;;;;;;;;;;;;;34.52;13.86;98357.31;4973312;28;20371;-58
2023/04/10 13:53:18;;;;;;;;;;;;;;;34.64;13.76;98347.06;4970888;28;21854;-60
2023/04/10 13:55:43;;;;;;;;;;;;;;;35.06;14.06;98334.66;4966143;28;20291;-60
2023/04/10 13:58:14;;;;;;;;;;;;;;;35.56;13.45;98331.50;4968730;28;19925;-61
2023/04/10 14:00:42;;;;;;;;;;;;;;;35.83;13.03;98333.28;4973437;28;19925;-61
2023/04/10 14:03:08;;;;;;;;;;;;;;;36.19;13.09;98330.69;4972695;28;19925;-61
2023/04/10 14:05:34;;;;;;;;;;;;;;;36.29;13.21;98314.34;4972635;28;19922;-61
2023/04/10 14:07:59;;;;;;;;;;;;;;;36.29;12.22;98317.88;4973450;28;19976;-61
2023/04/10 14:10:24;;;;;;;;;;;;;;;36.58;12.14;98315.53;4973982;28;19921;-61
2023/04/10 14:12:50;;;;;;;;;;;;;;;35.90;11.90;98314.75;4971265;28;19918;-61
2023/04/10 14:15:15;;;;;;;;;;;;;;;36.18;12.12;98305.31;4971194;28;19918;-61
2023/04/10 14:17:40;;;;;;;;;;;;;;;36.48;12.12;98310.03;4965773;28;20388;-61
2023/04/10 14:20:06;;;;;;;;;;;;;;;36.19;12.66;98306.13;4972362;28;19918;-61
2023/04/10 14:22:31;;;;;;;;;;;;;;;36.55;12.20;98304.31;4964375;28;19918;-61
2023/04/10 14:24:56;;;;;;;;;;;;;;;36.24;12.34;98292.50;4972361;28;20409;-61
2023/04/10 14:27:21;;;;;;;;;;;;;;;35.69;12.86;98288.44;4962413;28;20013;-61
2023/04/10 14:29:47;;;;;;;;;;;;;;;35.38;12.88;98288.28;4959842;28;19990;-61
2023/04/10 14:32:12;;;;;;;;;;;;;;;34.96;12.63;98289.88;4958989;28;19934;-61
2023/04/10 14:34:37;;;;;;;;;;;;;;;34.08;12.66;98289.31;4973516;28;19914;-61
2023/04/10 14:37:02;;;;;;;;;;;;;;;32.94;14.15;98284.44;4964619;28;19926;-60
2023/04/10 14:39:28;;;;;;;;;;;;;;;31.55;14.59;98282.88;4972635;28;19914;-60
2023/04/10 14:41:53;;;;;;;;;;;;;;;30.80;15.76;98297.13;4971007;28;20343;-61
2023/04/10 14:44:18;;;;;;;;;;;;;;;31.19;15.90;98291.03;4973004;28;19945;-61
2023/04/10 14:46:44;;;;;;;;;;;;;;;31.71;15.84;98282.16;4972182;28;19918;-61
2023/04/10 14:49:10;;;;;;;;;;;;;;;32.14;15.20;98280.84;4973088;28;19914;-61
2023/04/10 14:51:36;;;;;;;;;;;;;;;31.58;15.28;98274.28;4972045;28;19918;-60
2023/04/10 14:54:03;;;;;;;;;;;;;;;31.07;16.00;98273.94;4971463;28;19922;-61
2023/04/10 14:56:28;;;;;;;;;;;;;;;30.41;15.75;98278.53;4971888;28;20032;-60
2023/04/10 14:58:53;;;;;;;;;;;;;;;30.13;16.51;98268.31;4972560;28;19988;-61
2023/04/10 15:01:18;;;;;;;;;;;;;;;29.34;16.79;98272.78;4972682;28;20020;-61
2023/04/10 15:03:47;;;;;;;;;;;;;;;29.01;17.89;98259.59;4971219;28;20001;-60
2023/04/10 15:06:12;;;;;;;;;;;;;;;28.90;18.34;98261.13;4971506;28;19945;-61
2023/04/10 15:08:38;;;;;;;;;;;;;;;28.57;18.76;98256.84;4955138;28;20311;-60
2023/04/10 15:11:06;;;;;;;;;;;;;;;28.49;17.67;98259.78;4972789;28;20299;-60
2023/04/10 15:13:31;;;;;;;;;;;;;;;28.22;17.80;98255.59;4970377;28;20410;-60
2023/04/10 15:15:56;;;;;;;;;;;;;;;27.90;18.57;98260.97;4971043;28;19914;-60
2023/04/10 15:18:21;;;;;;;;;;;;;;;27.85;18.35;98264.31;4972258;28;19921;-60
2023/04/10 15:20:47;;;;;;;;;;;;;;;27.62;17.67;98253.19;4970655;28;20339;-60
2023/04/10 15:23:12;;;;;;;;;;;;;;;27.68;18.36;98252.34;4970897;28;19918;-60
2023/04/10 15:25:37;;;;;;;;;;;;;;;27.76;18.61;98248.59;4972062;28;19918;-61
2023/04/10 15:28:02;;;;;;;;;;;;;;;27.75;18.68;98236.97;4970811;28;19921;-60
2023/04/10 15:30:28;;;;;;;;;;;;;;;27.43;18.44;98238.75;4972644;28;20493;-60
2023/04/10 15:32:53;;;;;;;;;;;;;;;26.99;18.40;98233.03;4971288;28;19918;-61
2023/04/10 15:35:19;;;;;;;;;;;;;;;26.27;19.16;98231.97;4972668;28;19914;-60
2023/04/10 15:37:44;;;;;;;;;;;;;;;25.96;19.75;98229.84;4971804;28;19922;-60
2023/04/10 15:40:09;;;;;;;;;;;;;;;25.67;20.18;98225.63;4972737;28;19924;-60
2023/04/10 15:42:35;;;;;;;;;;;;;;;25.01;20.61;98227.91;4969572;28;19918;-60
2023/04/10 15:45:00;;;;;;;;;;;;;;;25.02;21.03;98216.19;4972085;28;20000;-60
2023/04/10 15:47:25;;;;;;;;;;;;;;;25.05;21.28;98221.13;4972352;28;20332;-61
2023/04/10 15:49:50;;;;;;;;;;;;;;;25.19;21.24;98220.22;4972796;28;19925;-60
2023/04/10 15:52:15;;;;;;;;;;;;;;;25.34;20.99;98220.91;4971304;28;19958;-61
2023/04/10 15:54:41;;;;;;;;;;;;;;;25.28;21.05;98229.75;4973577;28;19961;-60
2023/04/10 15:57:06;;;;;;;;;;;;;;;25.18;21.36;98218.56;4975802;28;19948;-60
2023/04/10 15:59:31;;;;;;;;;;;;;;;25.09;21.16;98215.19;4976561;28;19962;-61
2023/04/10 16:01:57;;;;;;;;;;;;;;;24.99;22.05;98214.72;4974840;28;19953;-61
2023/04/10 16:04:22;;;;;;;;;;;;;;;24.77;21.87;98210.44;4976266;28;20050;-60
2023/04/10 16:06:47;;;;;;;;;;;;;;;24.52;22.13;98207.34;4975977;28;19957;-60
2023/04/10 16:09:12;;;;;;;;;;;;;;;24.05;22.27;98219.47;4970462;28;19925;-60
2023/04/10 16:11:38;;;;;;;;;;;;;;;23.58;22.37;98216.25;4978081;28;19923;-60
2023/04/10 16:14:03;;;;;;;;;;;;;;;23.19;23.05;98214.75;4967860;28;20135;-60
2023/04/10 16:16:29;;;;;;;;;;;;;;;22.99;22.99;98219.00;4969163;28;20384;-60
2023/04/10 16:18:55;;;;;;;;;;;;;;;22.83;23.35;98211.09;4968527;28;20000;-61
2023/04/10 16:21:20;;;;;;;;;;;;;;;22.44;24.31;98218.31;4975764;28;19946;-60
2023/04/10 16:23:46;;;;;;;;;;;;;;;22.17;24.03;98216.19;4975787;28;20355;-60
2023/04/10 16:26:11;;;;;;;;;;;;;;;21.78;23.57;98212.59;4968599;28;19953;-60
2023/04/10 16:28:36;;;;;;;;;;;;;;;21.43;23.99;98205.91;4974301;28;19925;-60
2023/04/10 16:31:01;;;;;;;;;;;;;;;21.17;24.95;98200.03;4975362;28;19918;-60
2023/04/10 16:33:28;;;;;;;;;;;;;;;20.99;25.68;98201.09;4964588;28;20400;-60
2023/04/10 16:35:54;;;;;;;;;;;;;;;20.70;25.94;98196.31;4967878;28;19914;-60
2023/04/10 16:38:20;;;;;;;;;;;;;;;20.46;25.79;98199.81;4966231;28;19946;-60
2023/04/10 16:40:45;;;;;;;;;;;;;;;20.35;25.75;98189.50;4959806;28;19968;-60
2023/04/10 16:43:11;;;;;;;;;;;;;;;20.08;26.31;98186.16;4962971;28;19921;-59
2023/04/10 16:45:36;;;;;;;;;;;;;;;19.96;26.90;98176.88;4956028;28;20265;-59
2023/04/10 16:48:01;;;;;;;;;;;;;;;19.65;27.06;98177.47;4955556;28;19925;-61
2023/04/10 16:50:27;;;;;;;;;;;;;;;19.33;27.84;98169.38;4960484;28;20459;-60
2023/04/10 16:52:52;;;;;;;;;;;;;;;19.19;27.80;98165.50;4967163;28;20467;-61
2023/04/10 16:55:17;;;;;;;;;;;;;;;18.98;28.02;98168.56;4974999;28;20436;-60
2023/04/10 16:57:43;;;;;;;;;;;;;;;18.88;28.01;98173.16;4973747;28;19918;-60
2023/04/10 17:00:08;;;;;;;;;;;;;;;18.75;28.17;98165.63;4973865;28;19972;-60
2023/04/10 17:02:33;;;;;;;;;;;;;;;18.71;28.24;98170.41;4964847;28;19918;-60
2023/04/10 17:04:59;;;;;;;;;;;;;;;18.65;28.40;98159.56;4974588;28;19965;-60
2023/04/10 17:07:24;;;;;;;;;;;;;;;18.50;28.93;98151.34;4971909;28;20029;-60
2023/04/10 17:09:50;;;;;;;;;;;;;;;18.37;29.34;98153.56;4973594;28;19922;-61
2023/04/10 17:12:15;;;;;;;;;;;;;;;18.20;29.28;98155.28;4973182;28;19918;-61
2023/04/10 17:14:40;;;;;;;;;;;;;;;18.13;29.86;98147.09;4974223;28;19957;-60
2023/04/10 17:17:05;;;;;;;;;;;;;;;18.01;29.84;98148.34;4973782;28;19921;-61
2023/04/10 17:19:30;;;;;;;;;;;;;;;17.89;30.51;98149.56;4972675;28;19968;-61
2023/04/10 17:21:56;;;;;;;;;;;;;;;17.75;30.28;98140.28;4973520;28;19973;-60
2023/04/10 17:24:21;;;;;;;;;;;;;;;17.63;30.78;98142.34;4973914;28;19958;-61
2023/04/10 17:26:46;;;;;;;;;;;;;;;17.48;31.45;98130.56;4973430;28;19973;-61
2023/04/10 17:29:11;;;;;;;;;;;;;;;17.30;31.74;98126.09;4973935;28;19959;-60
2023/04/10 17:31:37;;;;;;;;;;;;;;;17.12;32.29;98124.41;4971572;28;19925;-61
2023/04/10 17:34:02;;;;;;;;;;;;;;;16.98;32.79;98123.91;4974687;28;19918;-61
2023/04/10 17:36:28;;;;;;;;;;;;;;;16.82;33.17;98110.47;4973777;28;19918;-60
2023/04/10 17:38:53;;;;;;;;;;;;;;;16.70;33.61;98112.44;4973757;28;19918;-60
2023/04/10 17:41:18;;;;;;;;;;;;;;;16.52;33.88;98114.19;4971980;28;19973;-60
2023/04/10 17:43:44;;;;;;;;;;;;;;;16.34;33.87;98111.44;4964267;28;19966;-60
2023/04/10 17:46:13;;;;;;;;;;;;;;;16.19;33.91;98111.06;4965561;28;19914;-58
2023/04/10 17:48:38;;;;;;;;;;;;;;;16.05;33.94;98107.06;4970844;28;20559;-60
2023/04/10 17:51:05;;;;;;;;;;;;;;;15.96;34.59;98112.38;4967388;28;20126;-60
2023/04/10 17:53:30;;;;;;;;;;;;;;;15.80;34.70;98119.06;4968168;28;20531;-60
2023/04/10 17:55:55;;;;;;;;;;;;;;;15.64;35.10;98124.06;4965789;28;20408;-60
2023/04/10 17:58:21;;;;;;;;;;;;;;;15.53;35.62;98127.66;4959219;28;20351;-60
2023/04/10 18:00:46;;;;;;;;;;;;;;;15.40;36.13;98117.34;4972743;28;20355;-60
2023/04/10 18:03:11;;;;;;;;;;;;;;;15.30;36.70;98119.16;4972841;28;19922;-60
2023/04/10 18:05:38;;;;;;;;;;;;;;;15.17;37.13;98116.78;4973165;28;19918;-60
2023/04/10 18:08:03;;;;;;;;;;;;;;;15.06;37.52;98118.69;4972618;28;20299;-60
2023/04/10 18:10:29;;;;;;;;;;;;;;;14.96;37.97;98119.50;4977426;28;19918;-61
2023/04/10 18:12:57;;;;;;;;;;;;;;;14.88;38.60;98116.69;4969065;28;19918;-61
2023/04/10 18:15:26;;;;;;;;;;;;;;;14.78;38.99;98110.53;4964446;28;19925;-60
2023/04/10 18:17:51;;;;;;;;;;;;;;;14.65;39.10;98120.50;4965602;28;20491;-60
2023/04/10 18:20:17;;;;;;;;;;;;;;;14.61;39.68;98104.09;4966704;28;19925;-61
2023/04/10 18:22:43;;;;;;;;;;;;;;;14.57;39.80;98101.84;4971350;28;19925;-62
2023/04/10 18:25:08;;;;;;;;;;;;;;;14.47;40.31;98091.22;4974065;28;19914;-62
2023/04/10 18:27:34;;;;;;;;;;;;;;;14.38;40.55;98092.88;4974452;28;19969;-62
2023/04/10 18:30:00;;;;;;;;;;;;;;;14.30;41.09;98090.03;4967732;28;19929;-61
2023/04/10 18:32:25;;;;;;;;;;;;;;;14.26;41.03;98083.34;4978707;28;19917;-61
2023/04/10 18:34:50;;;;;;;;;;;;;;;14.17;41.23;98077.03;4961043;28;19914;-61
2023/04/10 18:37:15;;;;;;;;;;;;;;;14.10;41.36;98077.69;4968992;28;19918;-61
2023/04/10 18:39:40;;;;;;;;;;;;;;;14.05;41.32;98078.09;4966575;28;20419;-61
2023/04/10 18:42:09;;;;;;;;;;;;;;;14.01;41.28;98090.72;4968814;28;20396;-62
2023/04/10 18:44:34;;;;;;;;;;;;;;;13.95;41.61;98083.31;4957704;28;19914;-61
2023/04/10 18:47:00;;;;;;;;;;;;;;;13.91;41.38;98078.44;4967991;28;19918;-61
2023/04/10 18:49:25;;;;;;;;;;;;;;;13.88;41.62;98062.88;4955996;28;20370;-61
2023/04/10 18:51:50;;;;;;;;;;;;;;;13.87;42.25;98061.22;4962438;28;19949;-61
2023/04/10 18:54:15;;;;;;;;;;;;;;;13.83;41.75;98065.88;4968194;28;19962;-62
2023/04/10 18:56:40;;;;;;;;;;;;;;;13.80;42.19;98066.16;4972347;28;19930;-61
2023/04/10 18:59:06;;;;;;;;;;;;;;;13.78;41.94;98055.72;4979449;28;19913;-62
2023/04/10 19:01:31;;;;;;;;;;;;;;;14.40;49.86;98053.97;4967672;28;19918;-61
2023/04/10 19:03:57;;;;;;;;;;;;;;;15.59;44.62;98060.19;4964467;28;20014;-62
2023/04/10 19:06:22;;;;;;;;;;;;;;;15.02;39.57;98051.25;4969852;28;19914;-62
2023/04/10 19:08:48;;;;;;;;;;;;;;;14.67;40.40;98049.94;4971286;28;19926;-62
2023/04/10 19:11:13;;;;;;;;;;;;;;;14.42;41.31;98048.59;4969481;28;20407;-62
2023/04/10 19:13:38;;;;;;;;;;;;;;;14.25;40.91;98060.59;4969905;28;19925;-62
2023/04/10 19:16:04;;;;;;;;;;;;;;;14.11;41.75;98055.63;4973331;28;19914;-62
2023/04/10 19:18:30;;;;;;;;;;;;;;;13.95;41.81;98051.69;4972026;28;19921;-62
2023/04/10 19:20:55;;;;;;;;;;;;;;;13.84;42.38;98035.94;4974835;28;19918;-62
2023/04/10 19:23:20;;;;;;;;;;;;;;;13.76;42.05;98035.72;4965756;28;19925;-62
2023/04/10 19:25:46;;;;;;;;;;;;;;;13.64;41.99;98044.69;4961379;28;19914;-62
2023/04/10 19:28:11;;;;;;;;;;;;;;;13.57;42.83;98046.16;4973691;28;20005;-62
2023/04/10 19:30:36;;;;;;;;;;;;;;;13.56;43.28;98047.09;4966725;28;19940;-62
2023/04/10 19:33:01;;;;;;;;;;;;;;;13.51;43.21;98050.13;4967219;28;19933;-62
2023/04/10 19:35:26;;;;;;;;;;;;;;;13.43;43.23;98048.13;4965354;28;20202;-62
2023/04/10 19:37:54;;;;;;;;;;;;;;;13.38;43.01;98046.84;4972937;28;20406;-62
2023/04/10 19:40:20;;;;;;;;;;;;;;;13.29;42.47;98056.34;4970494;28;19922;-61
2023/04/10 19:42:45;;;;;;;;;;;;;;;13.23;42.87;98062.06;4970131;28;19945;-61
2023/04/10 19:45:10;;;;;;;;;;;;;;;13.15;43.74;98054.81;4971808;28;19925;-62
2023/04/10 19:47:36;;;;;;;;;;;;;;;13.13;43.89;98061.16;4970979;28;20004;-62
2023/04/10 19:50:01;;;;;;;;;;;;;;;13.08;44.45;98048.38;4971970;28;20363;-62
2023/04/10 19:52:26;;;;;;;;;;;;;;;12.94;43.95;98036.31;4972906;28;19918;-62
2023/04/10 19:54:51;;;;;;;;;;;;;;;13.00;44.82;98046.34;4973140;28;19992;-62
2023/04/10 19:57:17;;;;;;;;;;;;;;;12.98;44.48;98032.47;4966044;28;20001;-62
2023/04/10 19:59:42;;;;;;;;;;;;;;;12.94;44.09;98030.19;4965519;28;20010;-62
2023/04/10 20:02:09;;;;;;;;;;;;;;;12.89;45.13;98032.38;4967127;28;20009;-62
2023/04/10 20:04:34;;;;;;;;;;;;;;;12.85;44.32;98036.22;4967575;28;19980;-59
2023/04/10 20:07:00;;;;;;;;;;;;;;;12.81;44.40;98043.53;4966433;28;20340;-61
2023/04/10 20:09:25;;;;;;;;;;;;;;;12.80;45.29;98042.69;4969916;28;19937;-61
2023/04/10 20:11:50;;;;;;;;;;;;;;;12.80;44.93;98033.94;4959985;28;20438;-61
2023/04/10 20:14:15;;;;;;;;;;;;;;;14.51;51.22;98026.69;4971027;28;19918;-61
2023/04/10 20:16:41;;;;;;;;;;;;;;;15.52;47.69;98009.69;4970649;28;19933;-61
2023/04/10 20:19:06;;;;;;;;;;;;;;;15.92;45.58;97994.63;4970048;28;19918;-61
2023/04/10 20:21:33;;;;;;;;;;;;;;;16.12;44.62;97985.63;4963194;28;20133;-60
2023/04/10 20:23:58;;;;;;;;;;;;;;;16.21;43.75;98011.22;4968671;28;19997;-62
2023/04/10 20:26:26;;;;;;;;;;;;;;;15.46;45.16;98025.28;4970801;28;19918;-60
2023/04/10 20:28:52;;;;;;;;;;;;;;;14.93;45.53;98030.00;4947381;28;20065;-60
2023/04/10 20:31:17;;;;;;;;;;;;;;;14.57;46.54;98028.78;4971306;28;20435;-61
2023/04/10 20:33:42;;;;;;;;;;;;;;;14.18;45.53;98030.44;4971398;28;19914;-61
2023/04/10 20:36:07;;;;;;;;;;;;;;;13.99;48.08;98028.53;4970789;28;20005;-61
2023/04/10 20:38:33;;;;;;;;;;;;;;;13.80;49.25;98012.59;4972295;28;19960;-60
2023/04/10 20:40:58;;;;;;;;;;;;;;;13.66;49.49;98003.22;4974008;28;19954;-61
2023/04/10 20:43:24;;;;;;;;;;;;;;;13.49;47.41;98000.22;4976056;28;19962;-61
2023/04/10 20:45:49;;;;;;;;;;;;;;;13.42;47.42;98009.59;4973839;28;19948;-61